sensor_id;sensor_type;location;lat;lon;timestamp;temperature;humidity
32614;DHT22;19031;51.400;6.770;2023-07-31T00:01:15;16.80;99.90
32614;DHT22;19031;51.400;6.770;2023-07-31T00:03:40;16.90;99.90
32614;DHT22;19031;51.400;6.770;2023-07-31T00:06:06;16.80;99.90
32614;DHT22;19031;51.400;6.770;2023-07-31T00:08:31;16.80;99.90
32614;DHT22;19031;51.400;6.770;2023-07-31T00:10:57;16.70;99.90
32614;DHT22;19031;51.400;6.770;2023-07-31T00:13:22;16.80;99.90
32614;DHT22;19031;51.400;6.770;2023-07-31T00:15:48;16.80;99.90
32614;DHT22;19031;51.400;6.770;2023-07-31T00:18:14;16.80;99.90
32614;DHT22;19031;51.400;6.770;2023-07-31T00:20:39;16.80;99.90
32614;DHT22;19031;51.400;6.770;2023-07-31T00:23:05;16.80;99.90
32614;DHT22;19031;51.400;6.770;2023-07-31T00:25:30;16.80;99.90
32614;DHT22;19031;51.400;6.770;2023-07-31T00:27:56;16.80;99.90
32614;DHT22;19031;51.400;6.770;2023-07-31T00:30:21;16.80;99.90
32614;DHT22;19031;51.400;6.770;2023-07-31T00:32:47;16.90;99.90
32614;DHT22;19031;51.400;6.770;2023-07-31T00:35:13;16.80;99.90
32614;DHT22;19031;51.400;6.770;2023-07-31T00:37:38;17.00;99.90
32614;DHT22;19031;51.400;6.770;2023-07-31T00:40:04;17.00;99.90
32614;DHT22;19031;51.400;6.770;2023-07-31T00:42:30;16.90;99.90
32614;DHT22;19031;51.400;6.770;2023-07-31T00:44:56;16.90;99.90
32614;DHT22;19031;51.400;6.770;2023-07-31T00:47:21;16.90;99.90
32614;DHT22;19031;51.400;6.770;2023-07-31T00:49:48;16.90;99.90
32614;DHT22;19031;51.400;6.770;2023-07-31T00:52:13;16.90;99.90
32614;DHT22;19031;51.400;6.770;2023-07-31T00:54:39;16.90;99.90
32614;DHT22;19031;51.400;6.770;2023-07-31T00:57:05;16.90;99.90
32614;DHT22;19031;51.400;6.770;2023-07-31T00:59:32;16.90;99.90
32614;DHT22;19031;51.400;6.770;2023-07-31T01:01:58;16.90;99.90
32614;DHT22;19031;51.400;6.770;2023-07-31T01:04:24;17.00;99.90
32614;DHT22;19031;51.400;6.770;2023-07-31T01:09:44;16.90;99.90
32614;DHT22;19031;51.400;6.770;2023-07-31T01:12:18;16.90;99.90
32614;DHT22;19031;51.400;6.770;2023-07-31T01:15:04;16.90;99.90
32614;DHT22;19031;51.400;6.770;2023-07-31T01:17:30;16.90;99.90
32614;DHT22;19031;51.400;6.770;2023-07-31T01:19:59;16.90;99.90
32614;DHT22;19031;51.400;6.770;2023-07-31T01:28:15;17.00;99.90
32614;DHT22;19031;51.400;6.770;2023-07-31T01:30:45;17.10;99.90
32614;DHT22;19031;51.400;6.770;2023-07-31T01:33:12;17.10;99.90
32614;DHT22;19031;51.400;6.770;2023-07-31T01:35:41;17.00;99.90
32614;DHT22;19031;51.400;6.770;2023-07-31T01:38:07;17.10;99.90
32614;DHT22;19031;51.400;6.770;2023-07-31T01:40:33;17.10;99.90
32614;DHT22;19031;51.400;6.770;2023-07-31T01:42:58;17.00;99.90
32614;DHT22;19031;51.400;6.770;2023-07-31T01:45:24;17.00;99.90
32614;DHT22;19031;51.400;6.770;2023-07-31T01:47:49;17.10;99.90
32614;DHT22;19031;51.400;6.770;2023-07-31T01:50:15;17.00;99.90
32614;DHT22;19031;51.400;6.770;2023-07-31T01:52:40;17.00;99.90
32614;DHT22;19031;51.400;6.770;2023-07-31T01:55:06;17.00;99.90
32614;DHT22;19031;51.400;6.770;2023-07-31T01:57:32;17.00;99.90
32614;DHT22;19031;51.400;6.770;2023-07-31T01:59:57;17.00;99.90
32614;DHT22;19031;51.400;6.770;2023-07-31T02:02:23;17.00;99.90
32614;DHT22;19031;51.400;6.770;2023-07-31T02:04:48;17.00;99.90
32614;DHT22;19031;51.400;6.770;2023-07-31T02:07:14;17.00;99.90
32614;DHT22;19031;51.400;6.770;2023-07-31T02:09:40;17.00;99.90
32614;DHT22;19031;51.400;6.770;2023-07-31T02:12:08;17.00;99.90
32614;DHT22;19031;51.400;6.770;2023-07-31T02:14:34;17.10;99.90
32614;DHT22;19031;51.400;6.770;2023-07-31T02:17:00;17.00;99.90
32614;DHT22;19031;51.400;6.770;2023-07-31T02:19:25;17.00;99.90
32614;DHT22;19031;51.400;6.770;2023-07-31T02:21:51;17.10;99.90
32614;DHT22;19031;51.400;6.770;2023-07-31T02:24:16;17.00;99.90
32614;DHT22;19031;51.400;6.770;2023-07-31T02:26:42;17.10;99.90
32614;DHT22;19031;51.400;6.770;2023-07-31T02:29:08;17.00;99.90
32614;DHT22;19031;51.400;6.770;2023-07-31T02:31:34;17.00;99.90
32614;DHT22;19031;51.400;6.770;2023-07-31T02:33:59;17.00;99.90
32614;DHT22;19031;51.400;6.770;2023-07-31T02:36:25;17.10;99.90
32614;DHT22;19031;51.400;6.770;2023-07-31T02:38:51;17.00;99.90
32614;DHT22;19031;51.400;6.770;2023-07-31T02:41:16;17.00;99.90
32614;DHT22;19031;51.400;6.770;2023-07-31T02:43:42;17.10;99.90
32614;DHT22;19031;51.400;6.770;2023-07-31T02:46:07;17.00;99.90
32614;DHT22;19031;51.400;6.770;2023-07-31T02:48:33;17.10;99.90
32614;DHT22;19031;51.400;6.770;2023-07-31T02:50:58;17.10;99.90
32614;DHT22;19031;51.400;6.770;2023-07-31T02:53:24;17.00;99.90
32614;DHT22;19031;51.400;6.770;2023-07-31T02:55:50;17.00;99.90
32614;DHT22;19031;51.400;6.770;2023-07-31T02:58:15;17.20;99.90
32614;DHT22;19031;51.400;6.770;2023-07-31T03:00:44;17.10;99.90
32614;DHT22;19031;51.400;6.770;2023-07-31T03:03:10;17.10;99.90
32614;DHT22;19031;51.400;6.770;2023-07-31T03:05:36;17.10;99.90
32614;DHT22;19031;51.400;6.770;2023-07-31T03:08:01;17.20;99.90
32614;DHT22;19031;51.400;6.770;2023-07-31T03:10:27;17.10;99.90
32614;DHT22;19031;51.400;6.770;2023-07-31T03:12:53;17.10;99.90
32614;DHT22;19031;51.400;6.770;2023-07-31T03:15:18;17.10;99.90
32614;DHT22;19031;51.400;6.770;2023-07-31T03:17:44;17.10;99.90
32614;DHT22;19031;51.400;6.770;2023-07-31T03:20:10;17.20;99.90
32614;DHT22;19031;51.400;6.770;2023-07-31T03:22:35;17.20;99.90
32614;DHT22;19031;51.400;6.770;2023-07-31T03:25:02;17.20;99.90
32614;DHT22;19031;51.400;6.770;2023-07-31T03:27:28;17.30;99.90
32614;DHT22;19031;51.400;6.770;2023-07-31T03:29:53;17.20;99.90
32614;DHT22;19031;51.400;6.770;2023-07-31T03:32:19;17.20;99.90
32614;DHT22;19031;51.400;6.770;2023-07-31T03:34:44;17.20;99.90
32614;DHT22;19031;51.400;6.770;2023-07-31T03:37:10;17.20;99.90
32614;DHT22;19031;51.400;6.770;2023-07-31T03:39:36;17.20;99.90
32614;DHT22;19031;51.400;6.770;2023-07-31T03:42:01;17.20;99.90
32614;DHT22;19031;51.400;6.770;2023-07-31T03:44:27;17.30;99.90
32614;DHT22;19031;51.400;6.770;2023-07-31T03:46:53;17.30;99.90
32614;DHT22;19031;51.400;6.770;2023-07-31T03:49:18;17.30;99.90
32614;DHT22;19031;51.400;6.770;2023-07-31T03:51:44;17.30;99.90
32614;DHT22;19031;51.400;6.770;2023-07-31T03:54:10;17.40;99.90
32614;DHT22;19031;51.400;6.770;2023-07-31T03:56:35;17.40;99.90
32614;DHT22;19031;51.400;6.770;2023-07-31T03:59:01;17.40;99.90
32614;DHT22;19031;51.400;6.770;2023-07-31T04:01:27;17.40;99.90
32614;DHT22;19031;51.400;6.770;2023-07-31T04:03:52;17.50;99.90
32614;DHT22;19031;51.400;6.770;2023-07-31T04:06:18;17.40;99.90
32614;DHT22;19031;51.400;6.770;2023-07-31T04:08:44;17.50;99.90
32614;DHT22;19031;51.400;6.770;2023-07-31T04:11:10;17.40;99.90
32614;DHT22;19031;51.400;6.770;2023-07-31T04:13:36;17.50;99.90
32614;DHT22;19031;51.400;6.770;2023-07-31T04:16:02;17.40;99.90
32614;DHT22;19031;51.400;6.770;2023-07-31T04:18:28;17.50;99.90
32614;DHT22;19031;51.400;6.770;2023-07-31T04:20:56;17.60;99.90
32614;DHT22;19031;51.400;6.770;2023-07-31T04:23:24;17.50;99.90
32614;DHT22;19031;51.400;6.770;2023-07-31T04:25:49;17.50;99.90
32614;DHT22;19031;51.400;6.770;2023-07-31T04:28:15;17.60;99.90
32614;DHT22;19031;51.400;6.770;2023-07-31T04:30:40;17.60;99.90
32614;DHT22;19031;51.400;6.770;2023-07-31T04:33:06;17.50;99.90
32614;DHT22;19031;51.400;6.770;2023-07-31T04:35:31;17.40;99.90
32614;DHT22;19031;51.400;6.770;2023-07-31T04:37:57;17.40;99.90
32614;DHT22;19031;51.400;6.770;2023-07-31T04:40:23;17.40;99.90
32614;DHT22;19031;51.400;6.770;2023-07-31T04:42:48;17.40;99.90
32614;DHT22;19031;51.400;6.770;2023-07-31T04:45:14;17.50;99.90
32614;DHT22;19031;51.400;6.770;2023-07-31T04:47:39;17.40;99.90
32614;DHT22;19031;51.400;6.770;2023-07-31T04:50:05;17.40;99.90
32614;DHT22;19031;51.400;6.770;2023-07-31T04:52:31;17.40;99.90
32614;DHT22;19031;51.400;6.770;2023-07-31T04:54:57;17.40;99.90
32614;DHT22;19031;51.400;6.770;2023-07-31T04:57:22;17.50;99.90
32614;DHT22;19031;51.400;6.770;2023-07-31T04:59:48;17.50;99.90
32614;DHT22;19031;51.400;6.770;2023-07-31T05:02:13;17.50;99.90
32614;DHT22;19031;51.400;6.770;2023-07-31T05:04:39;17.50;99.90
32614;DHT22;19031;51.400;6.770;2023-07-31T05:07:05;17.60;99.90
32614;DHT22;19031;51.400;6.770;2023-07-31T05:09:30;17.60;99.90
32614;DHT22;19031;51.400;6.770;2023-07-31T05:11:56;17.60;99.90
32614;DHT22;19031;51.400;6.770;2023-07-31T05:14:21;17.70;99.90
32614;DHT22;19031;51.400;6.770;2023-07-31T05:16:47;17.70;99.90
32614;DHT22;19031;51.400;6.770;2023-07-31T05:19:12;17.70;99.90
32614;DHT22;19031;51.400;6.770;2023-07-31T05:21:38;17.60;99.90
32614;DHT22;19031;51.400;6.770;2023-07-31T05:24:04;17.70;99.90
32614;DHT22;19031;51.400;6.770;2023-07-31T05:26:30;17.70;99.90
32614;DHT22;19031;51.400;6.770;2023-07-31T05:28:55;17.70;99.90
32614;DHT22;19031;51.400;6.770;2023-07-31T05:31:21;17.70;99.90
32614;DHT22;19031;51.400;6.770;2023-07-31T05:33:48;17.70;99.90
32614;DHT22;19031;51.400;6.770;2023-07-31T05:36:15;17.70;99.90
32614;DHT22;19031;51.400;6.770;2023-07-31T05:38:41;17.70;99.90
32614;DHT22;19031;51.400;6.770;2023-07-31T05:41:09;17.70;99.90
32614;DHT22;19031;51.400;6.770;2023-07-31T05:43:35;17.70;99.90
32614;DHT22;19031;51.400;6.770;2023-07-31T05:46:00;17.70;99.90
32614;DHT22;19031;51.400;6.770;2023-07-31T05:48:26;17.80;99.90
32614;DHT22;19031;51.400;6.770;2023-07-31T05:50:52;17.70;99.90
32614;DHT22;19031;51.400;6.770;2023-07-31T05:53:17;17.80;99.90
32614;DHT22;19031;51.400;6.770;2023-07-31T05:55:43;17.90;99.90
32614;DHT22;19031;51.400;6.770;2023-07-31T05:58:09;17.70;99.90
32614;DHT22;19031;51.400;6.770;2023-07-31T06:00:34;17.80;99.90
32614;DHT22;19031;51.400;6.770;2023-07-31T06:03:00;17.80;99.90
32614;DHT22;19031;51.400;6.770;2023-07-31T06:05:25;17.90;99.90
32614;DHT22;19031;51.400;6.770;2023-07-31T06:07:53;17.90;99.90
32614;DHT22;19031;51.400;6.770;2023-07-31T06:10:19;17.90;99.90
32614;DHT22;19031;51.400;6.770;2023-07-31T06:12:44;18.00;99.90
32614;DHT22;19031;51.400;6.770;2023-07-31T06:15:10;17.80;99.90
32614;DHT22;19031;51.400;6.770;2023-07-31T06:17:36;17.90;99.90
32614;DHT22;19031;51.400;6.770;2023-07-31T06:20:02;17.90;99.90
32614;DHT22;19031;51.400;6.770;2023-07-31T06:22:30;17.90;99.90
32614;DHT22;19031;51.400;6.770;2023-07-31T06:24:56;17.80;99.90
32614;DHT22;19031;51.400;6.770;2023-07-31T06:27:21;17.80;99.90
32614;DHT22;19031;51.400;6.770;2023-07-31T06:29:47;17.80;99.90
32614;DHT22;19031;51.400;6.770;2023-07-31T06:32:13;17.80;99.90
32614;DHT22;19031;51.400;6.770;2023-07-31T06:34:39;17.80;99.90
32614;DHT22;19031;51.400;6.770;2023-07-31T06:37:05;17.80;99.90
32614;DHT22;19031;51.400;6.770;2023-07-31T06:39:30;17.80;99.90
32614;DHT22;19031;51.400;6.770;2023-07-31T06:41:56;17.70;99.90
32614;DHT22;19031;51.400;6.770;2023-07-31T06:44:21;17.70;99.90
32614;DHT22;19031;51.400;6.770;2023-07-31T06:46:47;17.60;99.90
32614;DHT22;19031;51.400;6.770;2023-07-31T06:49:13;17.60;99.90
32614;DHT22;19031;51.400;6.770;2023-07-31T06:51:40;17.60;99.90
32614;DHT22;19031;51.400;6.770;2023-07-31T06:54:07;17.60;99.90
32614;DHT22;19031;51.400;6.770;2023-07-31T06:56:33;17.60;99.90
32614;DHT22;19031;51.400;6.770;2023-07-31T06:58:58;17.60;99.90
32614;DHT22;19031;51.400;6.770;2023-07-31T07:01:24;17.60;99.90
32614;DHT22;19031;51.400;6.770;2023-07-31T07:03:49;17.60;99.90
32614;DHT22;19031;51.400;6.770;2023-07-31T07:06:19;17.60;99.90
32614;DHT22;19031;51.400;6.770;2023-07-31T07:08:45;17.60;99.90
32614;DHT22;19031;51.400;6.770;2023-07-31T07:11:11;17.60;99.90
32614;DHT22;19031;51.400;6.770;2023-07-31T07:13:36;17.60;99.90
32614;DHT22;19031;51.400;6.770;2023-07-31T07:16:02;17.50;99.90
32614;DHT22;19031;51.400;6.770;2023-07-31T07:18:27;17.50;99.90
32614;DHT22;19031;51.400;6.770;2023-07-31T07:20:54;17.50;99.90
32614;DHT22;19031;51.400;6.770;2023-07-31T07:23:20;17.40;99.90
32614;DHT22;19031;51.400;6.770;2023-07-31T07:25:46;17.40;99.90
32614;DHT22;19031;51.400;6.770;2023-07-31T07:28:13;17.40;99.90
32614;DHT22;19031;51.400;6.770;2023-07-31T07:30:38;17.40;99.90
32614;DHT22;19031;51.400;6.770;2023-07-31T07:33:04;17.40;99.90
32614;DHT22;19031;51.400;6.770;2023-07-31T07:35:32;17.30;99.90
32614;DHT22;19031;51.400;6.770;2023-07-31T07:37:58;17.30;99.90
32614;DHT22;19031;51.400;6.770;2023-07-31T07:40:23;17.30;99.90
32614;DHT22;19031;51.400;6.770;2023-07-31T07:42:50;17.50;99.90
32614;DHT22;19031;51.400;6.770;2023-07-31T07:45:15;17.40;99.90
32614;DHT22;19031;51.400;6.770;2023-07-31T07:47:41;17.40;99.90
32614;DHT22;19031;51.400;6.770;2023-07-31T07:50:08;17.40;99.90
32614;DHT22;19031;51.400;6.770;2023-07-31T07:52:34;17.40;99.90
32614;DHT22;19031;51.400;6.770;2023-07-31T07:54:59;17.40;99.90
32614;DHT22;19031;51.400;6.770;2023-07-31T07:57:26;17.30;99.90
32614;DHT22;19031;51.400;6.770;2023-07-31T07:59:51;17.40;99.90
32614;DHT22;19031;51.400;6.770;2023-07-31T08:02:17;17.30;99.90
32614;DHT22;19031;51.400;6.770;2023-07-31T08:04:42;17.30;99.90
32614;DHT22;19031;51.400;6.770;2023-07-31T08:07:10;17.20;99.90
32614;DHT22;19031;51.400;6.770;2023-07-31T08:09:36;17.40;99.90
32614;DHT22;19031;51.400;6.770;2023-07-31T08:12:01;17.40;99.90
32614;DHT22;19031;51.400;6.770;2023-07-31T08:14:29;17.50;99.90
32614;DHT22;19031;51.400;6.770;2023-07-31T08:16:55;17.50;99.90
32614;DHT22;19031;51.400;6.770;2023-07-31T08:19:21;17.50;99.90
32614;DHT22;19031;51.400;6.770;2023-07-31T08:21:46;17.60;99.90
32614;DHT22;19031;51.400;6.770;2023-07-31T08:24:12;17.50;99.90
32614;DHT22;19031;51.400;6.770;2023-07-31T08:26:37;17.60;99.90
32614;DHT22;19031;51.400;6.770;2023-07-31T08:29:03;17.50;99.90
32614;DHT22;19031;51.400;6.770;2023-07-31T08:31:28;17.40;99.90
32614;DHT22;19031;51.400;6.770;2023-07-31T08:33:55;17.50;99.90
32614;DHT22;19031;51.400;6.770;2023-07-31T08:36:21;17.40;99.90
32614;DHT22;19031;51.400;6.770;2023-07-31T08:38:46;17.40;99.90
32614;DHT22;19031;51.400;6.770;2023-07-31T08:41:12;17.50;99.90
32614;DHT22;19031;51.400;6.770;2023-07-31T08:43:39;17.50;99.90
32614;DHT22;19031;51.400;6.770;2023-07-31T08:46:05;17.50;99.90
32614;DHT22;19031;51.400;6.770;2023-07-31T08:48:31;17.60;99.90
32614;DHT22;19031;51.400;6.770;2023-07-31T08:50:57;17.50;99.90
32614;DHT22;19031;51.400;6.770;2023-07-31T08:53:23;17.60;99.90
32614;DHT22;19031;51.400;6.770;2023-07-31T08:55:49;17.60;99.90
32614;DHT22;19031;51.400;6.770;2023-07-31T08:58:15;17.60;99.90
32614;DHT22;19031;51.400;6.770;2023-07-31T09:00:41;17.60;99.90
32614;DHT22;19031;51.400;6.770;2023-07-31T09:03:13;17.50;99.90
32614;DHT22;19031;51.400;6.770;2023-07-31T09:05:42;17.40;99.90
32614;DHT22;19031;51.400;6.770;2023-07-31T09:08:09;17.50;99.90
32614;DHT22;19031;51.400;6.770;2023-07-31T09:10:43;17.50;99.90
32614;DHT22;19031;51.400;6.770;2023-07-31T09:13:09;17.40;99.90
32614;DHT22;19031;51.400;6.770;2023-07-31T09:15:36;17.50;99.90
32614;DHT22;19031;51.400;6.770;2023-07-31T09:18:03;17.50;99.90
32614;DHT22;19031;51.400;6.770;2023-07-31T09:20:29;17.60;99.90
32614;DHT22;19031;51.400;6.770;2023-07-31T09:22:55;17.60;99.90
32614;DHT22;19031;51.400;6.770;2023-07-31T09:25:23;17.50;99.90
32614;DHT22;19031;51.400;6.770;2023-07-31T09:27:51;17.60;99.90
32614;DHT22;19031;51.400;6.770;2023-07-31T09:30:20;17.60;99.90
32614;DHT22;19031;51.400;6.770;2023-07-31T09:32:47;17.70;99.90
32614;DHT22;19031;51.400;6.770;2023-07-31T09:35:21;17.70;99.90
32614;DHT22;19031;51.400;6.770;2023-07-31T09:37:55;17.70;99.90
32614;DHT22;19031;51.400;6.770;2023-07-31T09:40:36;17.80;99.90
32614;DHT22;19031;51.400;6.770;2023-07-31T09:43:24;17.80;99.90
32614;DHT22;19031;51.400;6.770;2023-07-31T09:45:57;17.80;99.90
32614;DHT22;19031;51.400;6.770;2023-07-31T09:48:41;17.80;99.90
32614;DHT22;19031;51.400;6.770;2023-07-31T09:51:10;17.80;99.90
32614;DHT22;19031;51.400;6.770;2023-07-31T09:53:46;17.80;99.90
32614;DHT22;19031;51.400;6.770;2023-07-31T09:56:19;17.80;99.90
32614;DHT22;19031;51.400;6.770;2023-07-31T09:58:47;17.80;99.90
32614;DHT22;19031;51.400;6.770;2023-07-31T10:01:13;18.20;99.90
32614;DHT22;19031;51.400;6.770;2023-07-31T10:03:40;17.80;99.90
32614;DHT22;19031;51.400;6.770;2023-07-31T10:06:07;17.90;99.90
32614;DHT22;19031;51.400;6.770;2023-07-31T10:08:35;17.80;99.90
32614;DHT22;19031;51.400;6.770;2023-07-31T10:11:02;17.80;99.90
32614;DHT22;19031;51.400;6.770;2023-07-31T10:13:33;17.70;99.90
32614;DHT22;19031;51.400;6.770;2023-07-31T10:15:59;17.70;99.90
32614;DHT22;19031;51.400;6.770;2023-07-31T10:18:26;17.80;99.90
32614;DHT22;19031;51.400;6.770;2023-07-31T10:21:08;17.80;99.90
32614;DHT22;19031;51.400;6.770;2023-07-31T10:23:33;17.90;99.90
32614;DHT22;19031;51.400;6.770;2023-07-31T10:26:01;17.80;99.90
32614;DHT22;19031;51.400;6.770;2023-07-31T10:28:32;17.90;99.90
32614;DHT22;19031;51.400;6.770;2023-07-31T10:30:59;18.00;99.90
32614;DHT22;19031;51.400;6.770;2023-07-31T10:33:25;18.00;99.90
32614;DHT22;19031;51.400;6.770;2023-07-31T10:39:34;18.00;99.90
32614;DHT22;19031;51.400;6.770;2023-07-31T10:42:10;18.10;99.90
32614;DHT22;19031;51.400;6.770;2023-07-31T10:44:35;18.20;99.90
32614;DHT22;19031;51.400;6.770;2023-07-31T10:47:01;18.30;99.90
32614;DHT22;19031;51.400;6.770;2023-07-31T10:52:20;18.30;99.90
32614;DHT22;19031;51.400;6.770;2023-07-31T10:57:56;18.40;99.90
32614;DHT22;19031;51.400;6.770;2023-07-31T11:00:29;18.50;99.90
32614;DHT22;19031;51.400;6.770;2023-07-31T11:05:49;18.50;99.90
32614;DHT22;19031;51.400;6.770;2023-07-31T11:08:46;18.70;99.90
32614;DHT22;19031;51.400;6.770;2023-07-31T11:11:22;18.60;99.90
32614;DHT22;19031;51.400;6.770;2023-07-31T11:13:52;18.70;99.90
32614;DHT22;19031;51.400;6.770;2023-07-31T11:16:22;18.70;99.90
32614;DHT22;19031;51.400;6.770;2023-07-31T11:18:49;18.70;99.90
32614;DHT22;19031;51.400;6.770;2023-07-31T11:21:39;18.80;99.90
32614;DHT22;19031;51.400;6.770;2023-07-31T11:24:08;18.90;99.90
32614;DHT22;19031;51.400;6.770;2023-07-31T11:26:33;18.90;99.90
32614;DHT22;19031;51.400;6.770;2023-07-31T11:28:59;18.80;99.90
32614;DHT22;19031;51.400;6.770;2023-07-31T11:31:27;19.00;99.90
32614;DHT22;19031;51.400;6.770;2023-07-31T11:34:05;18.80;99.90
32614;DHT22;19031;51.400;6.770;2023-07-31T11:36:30;18.80;99.90
32614;DHT22;19031;51.400;6.770;2023-07-31T11:39:10;18.80;99.90
32614;DHT22;19031;51.400;6.770;2023-07-31T11:41:36;18.90;99.90
32614;DHT22;19031;51.400;6.770;2023-07-31T11:44:17;18.90;99.90
32614;DHT22;19031;51.400;6.770;2023-07-31T11:47:06;18.80;99.90
32614;DHT22;19031;51.400;6.770;2023-07-31T11:49:32;18.70;99.90
32614;DHT22;19031;51.400;6.770;2023-07-31T11:52:08;19.10;99.90
32614;DHT22;19031;51.400;6.770;2023-07-31T11:54:34;18.60;99.90
32614;DHT22;19031;51.400;6.770;2023-07-31T11:56:59;18.60;99.90
32614;DHT22;19031;51.400;6.770;2023-07-31T11:59:27;18.60;99.90
32614;DHT22;19031;51.400;6.770;2023-07-31T12:01:52;18.40;99.90
32614;DHT22;19031;51.400;6.770;2023-07-31T12:07:16;18.50;99.90
32614;DHT22;19031;51.400;6.770;2023-07-31T12:09:52;18.40;99.90
32614;DHT22;19031;51.400;6.770;2023-07-31T12:12:22;18.50;99.90
32614;DHT22;19031;51.400;6.770;2023-07-31T12:14:48;18.50;99.90
32614;DHT22;19031;51.400;6.770;2023-07-31T12:17:16;18.40;99.90
32614;DHT22;19031;51.400;6.770;2023-07-31T12:19:42;18.50;99.90
32614;DHT22;19031;51.400;6.770;2023-07-31T12:22:14;18.50;99.90
32614;DHT22;19031;51.400;6.770;2023-07-31T12:24:43;18.50;99.90
32614;DHT22;19031;51.400;6.770;2023-07-31T12:27:13;18.40;99.90
32614;DHT22;19031;51.400;6.770;2023-07-31T12:29:40;18.50;99.90
32614;DHT22;19031;51.400;6.770;2023-07-31T12:32:25;18.60;99.90
32614;DHT22;19031;51.400;6.770;2023-07-31T12:34:53;18.70;99.90
32614;DHT22;19031;51.400;6.770;2023-07-31T12:40:39;18.80;99.90
32614;DHT22;19031;51.400;6.770;2023-07-31T12:43:06;19.30;99.90
32614;DHT22;19031;51.400;6.770;2023-07-31T12:45:32;18.70;99.90
32614;DHT22;19031;51.400;6.770;2023-07-31T12:47:58;18.70;99.90
32614;DHT22;19031;51.400;6.770;2023-07-31T12:50:27;18.80;99.90
32614;DHT22;19031;51.400;6.770;2023-07-31T12:53:18;18.80;99.90
32614;DHT22;19031;51.400;6.770;2023-07-31T12:55:44;18.80;99.90
32614;DHT22;19031;51.400;6.770;2023-07-31T12:58:12;18.80;99.90
32614;DHT22;19031;51.400;6.770;2023-07-31T13:00:40;18.70;99.90
32614;DHT22;19031;51.400;6.770;2023-07-31T13:03:06;18.70;99.90
32614;DHT22;19031;51.400;6.770;2023-07-31T13:05:37;18.70;99.90
32614;DHT22;19031;51.400;6.770;2023-07-31T13:08:03;18.70;99.90
32614;DHT22;19031;51.400;6.770;2023-07-31T13:10:28;18.90;99.90
32614;DHT22;19031;51.400;6.770;2023-07-31T13:12:55;19.00;99.90
32614;DHT22;19031;51.400;6.770;2023-07-31T13:15:21;19.00;99.90
32614;DHT22;19031;51.400;6.770;2023-07-31T13:17:46;19.10;99.90
32614;DHT22;19031;51.400;6.770;2023-07-31T13:20:18;19.20;99.90
32614;DHT22;19031;51.400;6.770;2023-07-31T13:22:43;19.20;99.90
32614;DHT22;19031;51.400;6.770;2023-07-31T13:25:09;19.30;99.90
32614;DHT22;19031;51.400;6.770;2023-07-31T13:27:46;19.40;99.90
32614;DHT22;19031;51.400;6.770;2023-07-31T13:30:15;19.40;99.90
32614;DHT22;19031;51.400;6.770;2023-07-31T13:32:41;19.40;99.90
32614;DHT22;19031;51.400;6.770;2023-07-31T13:35:09;19.50;99.90
32614;DHT22;19031;51.400;6.770;2023-07-31T13:37:37;19.60;99.90
32614;DHT22;19031;51.400;6.770;2023-07-31T13:40:05;19.60;99.90
32614;DHT22;19031;51.400;6.770;2023-07-31T13:42:32;19.70;99.90
32614;DHT22;19031;51.400;6.770;2023-07-31T13:44:58;19.80;99.90
32614;DHT22;19031;51.400;6.770;2023-07-31T13:47:26;19.70;99.90
32614;DHT22;19031;51.400;6.770;2023-07-31T13:50:08;19.90;99.90
32614;DHT22;19031;51.400;6.770;2023-07-31T13:52:33;20.10;99.90
32614;DHT22;19031;51.400;6.770;2023-07-31T13:54:59;20.10;99.90
32614;DHT22;19031;51.400;6.770;2023-07-31T13:57:24;20.20;99.90
32614;DHT22;19031;51.400;6.770;2023-07-31T13:59:50;20.30;99.90
32614;DHT22;19031;51.400;6.770;2023-07-31T14:02:21;20.40;99.90
32614;DHT22;19031;51.400;6.770;2023-07-31T14:04:47;20.40;99.90
32614;DHT22;19031;51.400;6.770;2023-07-31T14:07:15;20.40;99.90
32614;DHT22;19031;51.400;6.770;2023-07-31T14:09:42;20.60;99.90
32614;DHT22;19031;51.400;6.770;2023-07-31T14:12:08;20.80;99.90
32614;DHT22;19031;51.400;6.770;2023-07-31T14:14:34;20.70;99.90
32614;DHT22;19031;51.400;6.770;2023-07-31T14:16:59;20.70;99.90
32614;DHT22;19031;51.400;6.770;2023-07-31T14:19:25;20.60;99.90
32614;DHT22;19031;51.400;6.770;2023-07-31T14:21:50;20.50;99.90
32614;DHT22;19031;51.400;6.770;2023-07-31T14:24:16;20.40;99.90
32614;DHT22;19031;51.400;6.770;2023-07-31T14:26:41;20.40;99.90
32614;DHT22;19031;51.400;6.770;2023-07-31T14:29:07;20.30;99.90
32614;DHT22;19031;51.400;6.770;2023-07-31T14:31:32;20.20;99.90
32614;DHT22;19031;51.400;6.770;2023-07-31T14:33:58;20.10;99.90
32614;DHT22;19031;51.400;6.770;2023-07-31T14:36:23;20.10;99.90
32614;DHT22;19031;51.400;6.770;2023-07-31T14:38:49;20.00;99.90
32614;DHT22;19031;51.400;6.770;2023-07-31T14:41:15;20.00;99.90
32614;DHT22;19031;51.400;6.770;2023-07-31T14:43:40;20.00;99.90
32614;DHT22;19031;51.400;6.770;2023-07-31T14:46:06;19.90;99.90
32614;DHT22;19031;51.400;6.770;2023-07-31T14:48:31;19.90;99.90
32614;DHT22;19031;51.400;6.770;2023-07-31T14:50:57;19.90;99.90
32614;DHT22;19031;51.400;6.770;2023-07-31T14:53:25;19.70;99.90
32614;DHT22;19031;51.400;6.770;2023-07-31T14:55:51;19.70;99.90
32614;DHT22;19031;51.400;6.770;2023-07-31T14:58:16;19.50;99.90
32614;DHT22;19031;51.400;6.770;2023-07-31T15:00:43;19.50;99.90
32614;DHT22;19031;51.400;6.770;2023-07-31T15:03:08;19.50;99.90
32614;DHT22;19031;51.400;6.770;2023-07-31T15:05:34;19.30;99.90
32614;DHT22;19031;51.400;6.770;2023-07-31T15:08:00;19.40;99.90
32614;DHT22;19031;51.400;6.770;2023-07-31T15:10:25;19.30;99.90
32614;DHT22;19031;51.400;6.770;2023-07-31T15:12:51;19.30;99.90
32614;DHT22;19031;51.400;6.770;2023-07-31T15:15:16;19.20;99.90
32614;DHT22;19031;51.400;6.770;2023-07-31T15:17:42;19.40;99.90
32614;DHT22;19031;51.400;6.770;2023-07-31T15:20:09;19.30;99.90
32614;DHT22;19031;51.400;6.770;2023-07-31T15:22:35;19.30;99.90
32614;DHT22;19031;51.400;6.770;2023-07-31T15:25:00;19.30;99.90
32614;DHT22;19031;51.400;6.770;2023-07-31T15:27:26;19.30;99.90
32614;DHT22;19031;51.400;6.770;2023-07-31T15:29:54;19.30;99.90
32614;DHT22;19031;51.400;6.770;2023-07-31T15:32:21;19.20;99.90
32614;DHT22;19031;51.400;6.770;2023-07-31T15:34:50;19.30;99.90
32614;DHT22;19031;51.400;6.770;2023-07-31T15:37:15;19.40;99.90
32614;DHT22;19031;51.400;6.770;2023-07-31T15:39:42;19.40;99.90
32614;DHT22;19031;51.400;6.770;2023-07-31T15:42:08;19.40;99.90
32614;DHT22;19031;51.400;6.770;2023-07-31T15:44:34;19.50;99.90
32614;DHT22;19031;51.400;6.770;2023-07-31T15:47:00;19.50;99.90
32614;DHT22;19031;51.400;6.770;2023-07-31T15:49:25;19.50;99.90
32614;DHT22;19031;51.400;6.770;2023-07-31T15:51:51;19.40;99.90
32614;DHT22;19031;51.400;6.770;2023-07-31T15:54:16;19.50;99.90
32614;DHT22;19031;51.400;6.770;2023-07-31T15:56:43;19.40;99.90